sensor_id;sensor_type;location;lat;lon;timestamp;P1;durP1;ratioP1;P2;durP2;ratioP2
21036;SDS011;10677;50.942;4.028;2023-07-20T00:00:51;7.50;;;2.75;;
21036;SDS011;10677;50.942;4.028;2023-07-20T00:03:18;9.75;;;3.70;;
21036;SDS011;10677;50.942;4.028;2023-07-20T00:05:50;6.43;;;2.53;;
21036;SDS011;10677;50.942;4.028;2023-07-20T00:08:17;9.57;;;2.83;;
21036;SDS011;10677;50.942;4.028;2023-07-20T00:10:43;12.73;;;3.58;;
21036;SDS011;10677;50.942;4.028;2023-07-20T00:13:09;6.70;;;3.13;;
21036;SDS011;10677;50.942;4.028;2023-07-20T00:15:36;9.52;;;3.85;;
21036;SDS011;10677;50.942;4.028;2023-07-20T00:18:03;7.85;;;4.00;;
21036;SDS011;10677;50.942;4.028;2023-07-20T00:20:31;9.40;;;3.78;;
21036;SDS011;10677;50.942;4.028;2023-07-20T00:22:57;9.82;;;3.70;;
21036;SDS011;10677;50.942;4.028;2023-07-20T00:25:23;7.80;;;4.32;;
21036;SDS011;10677;50.942;4.028;2023-07-20T00:27:49;10.90;;;3.30;;
21036;SDS011;10677;50.942;4.028;2023-07-20T00:30:16;8.38;;;3.72;;
21036;SDS011;10677;50.942;4.028;2023-07-20T00:32:42;15.13;;;4.40;;
21036;SDS011;10677;50.942;4.028;2023-07-20T00:35:08;10.50;;;4.22;;
21036;SDS011;10677;50.942;4.028;2023-07-20T00:37:34;12.40;;;3.83;;
21036;SDS011;10677;50.942;4.028;2023-07-20T00:40:00;10.57;;;4.25;;
21036;SDS011;10677;50.942;4.028;2023-07-20T00:42:25;10.27;;;4.68;;
21036;SDS011;10677;50.942;4.028;2023-07-20T00:44:51;9.50;;;4.63;;
21036;SDS011;10677;50.942;4.028;2023-07-20T00:47:17;10.77;;;4.70;;
21036;SDS011;10677;50.942;4.028;2023-07-20T00:49:42;13.27;;;4.70;;
21036;SDS011;10677;50.942;4.028;2023-07-20T00:52:08;14.60;;;4.68;;
21036;SDS011;10677;50.942;4.028;2023-07-20T00:54:36;12.90;;;5.03;;
21036;SDS011;10677;50.942;4.028;2023-07-20T00:57:03;13.85;;;5.25;;
21036;SDS011;10677;50.942;4.028;2023-07-20T00:59:30;14.90;;;5.55;;
21036;SDS011;10677;50.942;4.028;2023-07-20T01:01:56;13.68;;;5.53;;
21036;SDS011;10677;50.942;4.028;2023-07-20T01:04:22;10.25;;;5.32;;
21036;SDS011;10677;50.942;4.028;2023-07-20T01:06:53;13.00;;;5.57;;
21036;SDS011;10677;50.942;4.028;2023-07-20T01:09:31;15.07;;;5.90;;
21036;SDS011;10677;50.942;4.028;2023-07-20T01:12:02;12.60;;;6.80;;
21036;SDS011;10677;50.942;4.028;2023-07-20T01:14:43;14.68;;;6.18;;
21036;SDS011;10677;50.942;4.028;2023-07-20T01:17:10;15.07;;;5.93;;
21036;SDS011;10677;50.942;4.028;2023-07-20T01:19:37;12.52;;;5.88;;
21036;SDS011;10677;50.942;4.028;2023-07-20T01:22:09;12.77;;;6.50;;
21036;SDS011;10677;50.942;4.028;2023-07-20T01:25:07;14.88;;;5.88;;
21036;SDS011;10677;50.942;4.028;2023-07-20T01:33:40;16.23;;;6.53;;
21036;SDS011;10677;50.942;4.028;2023-07-20T01:36:07;19.85;;;6.63;;
21036;SDS011;10677;50.942;4.028;2023-07-20T01:38:34;13.68;;;6.85;;
21036;SDS011;10677;50.942;4.028;2023-07-20T01:41:01;14.38;;;6.60;;
21036;SDS011;10677;50.942;4.028;2023-07-20T01:43:28;13.30;;;6.53;;
21036;SDS011;10677;50.942;4.028;2023-07-20T01:45:54;16.30;;;7.10;;
21036;SDS011;10677;50.942;4.028;2023-07-20T01:48:19;12.40;;;7.38;;
21036;SDS011;10677;50.942;4.028;2023-07-20T01:50:45;15.85;;;7.13;;
21036;SDS011;10677;50.942;4.028;2023-07-20T01:53:11;13.45;;;6.88;;
21036;SDS011;10677;50.942;4.028;2023-07-20T01:55:36;16.00;;;7.30;;
21036;SDS011;10677;50.942;4.028;2023-07-20T01:58:02;19.25;;;8.13;;
21036;SDS011;10677;50.942;4.028;2023-07-20T02:00:28;21.15;;;7.38;;
21036;SDS011;10677;50.942;4.028;2023-07-20T02:02:54;18.23;;;7.80;;
21036;SDS011;10677;50.942;4.028;2023-07-20T02:05:20;15.07;;;7.88;;
21036;SDS011;10677;50.942;4.028;2023-07-20T02:07:45;14.15;;;7.53;;
21036;SDS011;10677;50.942;4.028;2023-07-20T02:10:11;16.05;;;8.35;;
21036;SDS011;10677;50.942;4.028;2023-07-20T02:12:37;17.27;;;8.65;;
21036;SDS011;10677;50.942;4.028;2023-07-20T02:15:03;14.20;;;8.05;;
21036;SDS011;10677;50.942;4.028;2023-07-20T02:17:30;16.02;;;8.43;;
21036;SDS011;10677;50.942;4.028;2023-07-20T02:19:56;19.63;;;9.32;;
21036;SDS011;10677;50.942;4.028;2023-07-20T02:22:22;19.63;;;8.80;;
21036;SDS011;10677;50.942;4.028;2023-07-20T02:24:48;15.18;;;8.35;;
21036;SDS011;10677;50.942;4.028;2023-07-20T02:27:15;23.77;;;9.25;;
21036;SDS011;10677;50.942;4.028;2023-07-20T02:29:41;17.25;;;9.05;;
21036;SDS011;10677;50.942;4.028;2023-07-20T02:32:07;17.33;;;9.45;;
21036;SDS011;10677;50.942;4.028;2023-07-20T02:34:34;17.63;;;9.40;;
21036;SDS011;10677;50.942;4.028;2023-07-20T02:37:00;17.75;;;9.88;;
21036;SDS011;10677;50.942;4.028;2023-07-20T02:39:29;18.88;;;9.60;;
21036;SDS011;10677;50.942;4.028;2023-07-20T02:41:55;23.58;;;9.90;;
21036;SDS011;10677;50.942;4.028;2023-07-20T02:44:21;19.55;;;10.02;;
21036;SDS011;10677;50.942;4.028;2023-07-20T02:46:46;20.52;;;8.95;;
21036;SDS011;10677;50.942;4.028;2023-07-20T02:49:14;17.45;;;9.70;;
21036;SDS011;10677;50.942;4.028;2023-07-20T02:51:40;16.42;;;9.55;;
21036;SDS011;10677;50.942;4.028;2023-07-20T02:54:06;19.13;;;9.85;;
21036;SDS011;10677;50.942;4.028;2023-07-20T02:56:32;19.58;;;10.05;;
21036;SDS011;10677;50.942;4.028;2023-07-20T02:58:57;16.38;;;9.45;;
21036;SDS011;10677;50.942;4.028;2023-07-20T03:01:23;18.15;;;9.95;;
21036;SDS011;10677;50.942;4.028;2023-07-20T03:03:49;18.00;;;9.10;;
21036;SDS011;10677;50.942;4.028;2023-07-20T03:06:15;19.75;;;9.68;;
21036;SDS011;10677;50.942;4.028;2023-07-20T03:08:41;17.98;;;9.43;;
21036;SDS011;10677;50.942;4.028;2023-07-20T03:11:12;21.20;;;9.63;;
21036;SDS011;10677;50.942;4.028;2023-07-20T03:13:40;18.63;;;9.77;;
21036;SDS011;10677;50.942;4.028;2023-07-20T03:16:06;18.13;;;10.02;;
21036;SDS011;10677;50.942;4.028;2023-07-20T03:18:36;14.07;;;8.98;;
21036;SDS011;10677;50.942;4.028;2023-07-20T03:21:05;15.48;;;9.65;;
21036;SDS011;10677;50.942;4.028;2023-07-20T03:23:32;19.35;;;9.10;;
21036;SDS011;10677;50.942;4.028;2023-07-20T03:25:58;18.38;;;10.18;;
21036;SDS011;10677;50.942;4.028;2023-07-20T03:28:23;15.82;;;8.45;;
21036;SDS011;10677;50.942;4.028;2023-07-20T03:30:52;16.92;;;10.07;;
21036;SDS011;10677;50.942;4.028;2023-07-20T03:33:20;18.55;;;9.95;;
21036;SDS011;10677;50.942;4.028;2023-07-20T03:35:47;18.23;;;10.40;;
21036;SDS011;10677;50.942;4.028;2023-07-20T03:38:12;19.65;;;10.57;;
21036;SDS011;10677;50.942;4.028;2023-07-20T03:40:38;15.82;;;9.80;;
21036;SDS011;10677;50.942;4.028;2023-07-20T03:43:03;19.70;;;10.60;;
21036;SDS011;10677;50.942;4.028;2023-07-20T03:45:29;21.83;;;10.85;;
21036;SDS011;10677;50.942;4.028;2023-07-20T03:47:55;18.45;;;9.57;;
21036;SDS011;10677;50.942;4.028;2023-07-20T03:50:21;16.15;;;9.95;;
21036;SDS011;10677;50.942;4.028;2023-07-20T03:52:47;16.10;;;10.35;;
21036;SDS011;10677;50.942;4.028;2023-07-20T03:55:12;22.15;;;11.13;;
21036;SDS011;10677;50.942;4.028;2023-07-20T03:57:38;18.13;;;10.43;;
21036;SDS011;10677;50.942;4.028;2023-07-20T04:00:04;17.48;;;9.63;;
21036;SDS011;10677;50.942;4.028;2023-07-20T04:02:32;15.55;;;9.75;;
21036;SDS011;10677;50.942;4.028;2023-07-20T04:04:58;16.75;;;9.70;;
21036;SDS011;10677;50.942;4.028;2023-07-20T04:07:24;17.02;;;10.00;;
21036;SDS011;10677;50.942;4.028;2023-07-20T04:09:49;15.80;;;9.05;;
21036;SDS011;10677;50.942;4.028;2023-07-20T04:12:15;14.90;;;9.30;;
21036;SDS011;10677;50.942;4.028;2023-07-20T04:14:41;15.25;;;9.02;;
21036;SDS011;10677;50.942;4.028;2023-07-20T04:17:07;14.35;;;8.82;;
21036;SDS011;10677;50.942;4.028;2023-07-20T04:19:32;12.48;;;8.82;;
21036;SDS011;10677;50.942;4.028;2023-07-20T04:21:58;12.63;;;8.13;;
21036;SDS011;10677;50.942;4.028;2023-07-20T04:24:24;17.65;;;9.63;;
21036;SDS011;10677;50.942;4.028;2023-07-20T04:26:49;12.63;;;9.25;;
21036;SDS011;10677;50.942;4.028;2023-07-20T04:29:15;15.32;;;9.20;;
21036;SDS011;10677;50.942;4.028;2023-07-20T04:31:41;17.30;;;9.82;;
21036;SDS011;10677;50.942;4.028;2023-07-20T04:34:06;16.92;;;9.00;;
21036;SDS011;10677;50.942;4.028;2023-07-20T04:36:32;18.80;;;10.35;;
21036;SDS011;10677;50.942;4.028;2023-07-20T04:38:57;14.93;;;9.57;;
21036;SDS011;10677;50.942;4.028;2023-07-20T04:41:23;17.67;;;9.45;;
21036;SDS011;10677;50.942;4.028;2023-07-20T04:43:50;17.80;;;10.00;;
21036;SDS011;10677;50.942;4.028;2023-07-20T04:46:15;17.35;;;9.95;;
21036;SDS011;10677;50.942;4.028;2023-07-20T04:48:43;16.70;;;9.65;;
21036;SDS011;10677;50.942;4.028;2023-07-20T04:51:08;16.02;;;9.63;;
21036;SDS011;10677;50.942;4.028;2023-07-20T04:53:35;13.85;;;10.00;;
21036;SDS011;10677;50.942;4.028;2023-07-20T04:56:01;14.38;;;9.15;;
21036;SDS011;10677;50.942;4.028;2023-07-20T04:58:26;15.60;;;9.35;;
21036;SDS011;10677;50.942;4.028;2023-07-20T05:00:52;17.73;;;10.13;;
21036;SDS011;10677;50.942;4.028;2023-07-20T05:03:18;15.13;;;8.85;;
21036;SDS011;10677;50.942;4.028;2023-07-20T05:05:44;13.68;;;9.70;;
21036;SDS011;10677;50.942;4.028;2023-07-20T05:08:09;16.95;;;9.93;;
21036;SDS011;10677;50.942;4.028;2023-07-20T05:10:35;14.68;;;9.13;;
21036;SDS011;10677;50.942;4.028;2023-07-20T05:13:01;15.23;;;9.75;;
21036;SDS011;10677;50.942;4.028;2023-07-20T05:15:26;15.10;;;9.95;;
21036;SDS011;10677;50.942;4.028;2023-07-20T05:17:52;15.40;;;10.60;;
21036;SDS011;10677;50.942;4.028;2023-07-20T05:20:17;17.00;;;10.52;;
21036;SDS011;10677;50.942;4.028;2023-07-20T05:22:43;14.25;;;9.68;;
21036;SDS011;10677;50.942;4.028;2023-07-20T05:25:10;15.40;;;9.63;;
21036;SDS011;10677;50.942;4.028;2023-07-20T05:27:36;16.15;;;9.52;;
21036;SDS011;10677;50.942;4.028;2023-07-20T05:30:03;17.00;;;10.02;;
21036;SDS011;10677;50.942;4.028;2023-07-20T05:32:30;15.85;;;9.65;;
21036;SDS011;10677;50.942;4.028;2023-07-20T05:34:56;14.90;;;9.13;;
21036;SDS011;10677;50.942;4.028;2023-07-20T05:37:21;14.15;;;8.95;;
21036;SDS011;10677;50.942;4.028;2023-07-20T05:39:47;13.73;;;9.90;;
21036;SDS011;10677;50.942;4.028;2023-07-20T05:42:13;17.38;;;10.82;;
21036;SDS011;10677;50.942;4.028;2023-07-20T05:44:39;14.77;;;9.68;;
21036;SDS011;10677;50.942;4.028;2023-07-20T05:47:05;15.88;;;9.27;;
21036;SDS011;10677;50.942;4.028;2023-07-20T05:49:31;16.50;;;9.93;;
21036;SDS011;10677;50.942;4.028;2023-07-20T05:51:57;13.90;;;10.38;;
21036;SDS011;10677;50.942;4.028;2023-07-20T05:54:25;16.60;;;9.45;;
21036;SDS011;10677;50.942;4.028;2023-07-20T05:56:51;16.13;;;10.45;;
21036;SDS011;10677;50.942;4.028;2023-07-20T05:59:17;15.50;;;10.27;;
21036;SDS011;10677;50.942;4.028;2023-07-20T06:01:44;14.63;;;9.85;;
21036;SDS011;10677;50.942;4.028;2023-07-20T06:04:12;14.02;;;9.15;;
21036;SDS011;10677;50.942;4.028;2023-07-20T06:06:37;16.08;;;9.85;;
21036;SDS011;10677;50.942;4.028;2023-07-20T06:09:03;17.65;;;9.90;;
21036;SDS011;10677;50.942;4.028;2023-07-20T06:11:29;15.55;;;10.32;;
21036;SDS011;10677;50.942;4.028;2023-07-20T06:13:57;15.38;;;9.73;;
21036;SDS011;10677;50.942;4.028;2023-07-20T06:16:22;16.45;;;9.43;;
21036;SDS011;10677;50.942;4.028;2023-07-20T06:18:48;13.77;;;9.98;;
21036;SDS011;10677;50.942;4.028;2023-07-20T06:21:14;19.20;;;10.18;;
21036;SDS011;10677;50.942;4.028;2023-07-20T06:23:40;14.70;;;9.13;;
21036;SDS011;10677;50.942;4.028;2023-07-20T06:26:06;18.80;;;9.35;;
21036;SDS011;10677;50.942;4.028;2023-07-20T06:28:32;12.38;;;9.43;;
21036;SDS011;10677;50.942;4.028;2023-07-20T06:31:02;12.63;;;8.70;;
21036;SDS011;10677;50.942;4.028;2023-07-20T06:33:28;16.23;;;8.88;;
21036;SDS011;10677;50.942;4.028;2023-07-20T06:35:54;13.52;;;9.15;;
21036;SDS011;10677;50.942;4.028;2023-07-20T06:38:21;16.00;;;8.85;;
21036;SDS011;10677;50.942;4.028;2023-07-20T06:40:48;13.93;;;8.70;;
21036;SDS011;10677;50.942;4.028;2023-07-20T06:43:14;10.25;;;7.45;;
21036;SDS011;10677;50.942;4.028;2023-07-20T06:45:40;14.10;;;6.63;;
21036;SDS011;10677;50.942;4.028;2023-07-20T06:48:06;10.05;;;5.28;;
21036;SDS011;10677;50.942;4.028;2023-07-20T06:50:32;6.70;;;4.95;;
21036;SDS011;10677;50.942;4.028;2023-07-20T06:52:58;7.13;;;5.05;;
21036;SDS011;10677;50.942;4.028;2023-07-20T06:55:25;10.10;;;4.38;;
21036;SDS011;10677;50.942;4.028;2023-07-20T06:57:51;7.38;;;3.78;;
21036;SDS011;10677;50.942;4.028;2023-07-20T07:00:17;4.80;;;3.40;;
21036;SDS011;10677;50.942;4.028;2023-07-20T07:02:43;7.53;;;3.47;;
21036;SDS011;10677;50.942;4.028;2023-07-20T07:05:08;4.95;;;2.75;;
21036;SDS011;10677;50.942;4.028;2023-07-20T07:07:34;6.90;;;3.08;;
21036;SDS011;10677;50.942;4.028;2023-07-20T07:10:00;4.53;;;3.03;;
21036;SDS011;10677;50.942;4.028;2023-07-20T07:12:29;5.13;;;2.55;;
21036;SDS011;10677;50.942;4.028;2023-07-20T07:14:55;5.40;;;2.83;;
21036;SDS011;10677;50.942;4.028;2023-07-20T07:17:21;6.40;;;2.65;;
21036;SDS011;10677;50.942;4.028;2023-07-20T07:19:46;3.15;;;1.60;;
21036;SDS011;10677;50.942;4.028;2023-07-20T07:22:12;4.68;;;1.83;;
21036;SDS011;10677;50.942;4.028;2023-07-20T07:24:38;5.80;;;2.30;;
21036;SDS011;10677;50.942;4.028;2023-07-20T07:27:06;6.40;;;2.90;;
21036;SDS011;10677;50.942;4.028;2023-07-20T07:29:33;5.10;;;2.65;;
21036;SDS011;10677;50.942;4.028;2023-07-20T07:31:59;4.32;;;2.30;;
21036;SDS011;10677;50.942;4.028;2023-07-20T07:34:24;5.40;;;2.33;;
21036;SDS011;10677;50.942;4.028;2023-07-20T07:36:51;5.28;;;2.50;;
21036;SDS011;10677;50.942;4.028;2023-07-20T07:39:16;3.72;;;2.13;;
21036;SDS011;10677;50.942;4.028;2023-07-20T07:41:42;3.13;;;1.80;;
21036;SDS011;10677;50.942;4.028;2023-07-20T07:44:08;3.40;;;2.03;;
21036;SDS011;10677;50.942;4.028;2023-07-20T07:46:33;4.80;;;2.38;;
21036;SDS011;10677;50.942;4.028;2023-07-20T07:48:59;4.40;;;1.95;;
21036;SDS011;10677;50.942;4.028;2023-07-20T07:51:24;4.40;;;2.33;;
21036;SDS011;10677;50.942;4.028;2023-07-20T07:53:52;4.35;;;2.60;;
21036;SDS011;10677;50.942;4.028;2023-07-20T07:56:18;4.00;;;2.58;;
21036;SDS011;10677;50.942;4.028;2023-07-20T07:58:47;7.50;;;2.22;;
21036;SDS011;10677;50.942;4.028;2023-07-20T08:01:19;5.00;;;2.20;;
21036;SDS011;10677;50.942;4.028;2023-07-20T08:03:45;3.63;;;1.67;;
21036;SDS011;10677;50.942;4.028;2023-07-20T08:06:12;3.75;;;1.60;;
21036;SDS011;10677;50.942;4.028;2023-07-20T08:08:38;3.15;;;1.73;;
21036;SDS011;10677;50.942;4.028;2023-07-20T08:11:04;4.10;;;1.80;;
21036;SDS011;10677;50.942;4.028;2023-07-20T08:13:30;4.82;;;2.10;;
21036;SDS011;10677;50.942;4.028;2023-07-20T08:15:56;3.08;;;1.45;;
21036;SDS011;10677;50.942;4.028;2023-07-20T08:18:22;3.47;;;1.38;;
21036;SDS011;10677;50.942;4.028;2023-07-20T08:20:47;4.85;;;1.67;;
21036;SDS011;10677;50.942;4.028;2023-07-20T08:23:14;2.67;;;1.42;;
21036;SDS011;10677;50.942;4.028;2023-07-20T08:25:40;2.95;;;1.20;;
21036;SDS011;10677;50.942;4.028;2023-07-20T08:28:09;2.13;;;1.10;;
21036;SDS011;10677;50.942;4.028;2023-07-20T08:30:40;4.30;;;2.05;;
21036;SDS011;10677;50.942;4.028;2023-07-20T08:33:10;3.95;;;2.10;;
21036;SDS011;10677;50.942;4.028;2023-07-20T08:35:41;4.65;;;2.75;;
21036;SDS011;10677;50.942;4.028;2023-07-20T08:38:07;3.10;;;2.30;;
21036;SDS011;10677;50.942;4.028;2023-07-20T08:40:33;3.50;;;2.15;;
21036;SDS011;10677;50.942;4.028;2023-07-20T08:43:13;3.67;;;2.20;;
21036;SDS011;10677;50.942;4.028;2023-07-20T08:45:41;3.00;;;1.80;;
21036;SDS011;10677;50.942;4.028;2023-07-20T08:48:10;2.70;;;1.60;;
21036;SDS011;10677;50.942;4.028;2023-07-20T08:50:37;3.88;;;1.60;;
21036;SDS011;10677;50.942;4.028;2023-07-20T08:53:04;3.13;;;1.50;;
21036;SDS011;10677;50.942;4.028;2023-07-20T08:55:30;3.15;;;1.50;;
21036;SDS011;10677;50.942;4.028;2023-07-20T08:58:00;3.00;;;1.42;;
21036;SDS011;10677;50.942;4.028;2023-07-20T09:00:27;3.97;;;2.10;;
21036;SDS011;10677;50.942;4.028;2023-07-20T09:02:56;3.25;;;1.80;;
21036;SDS011;10677;50.942;4.028;2023-07-20T09:05:23;3.00;;;1.75;;
21036;SDS011;10677;50.942;4.028;2023-07-20T09:07:50;2.67;;;1.58;;
21036;SDS011;10677;50.942;4.028;2023-07-20T09:10:16;3.05;;;1.58;;
21036;SDS011;10677;50.942;4.028;2023-07-20T09:12:43;3.28;;;1.70;;
21036;SDS011;10677;50.942;4.028;2023-07-20T09:15:09;4.10;;;1.60;;
21036;SDS011;10677;50.942;4.028;2023-07-20T09:17:36;3.13;;;1.40;;
21036;SDS011;10677;50.942;4.028;2023-07-20T09:20:06;2.95;;;1.70;;
21036;SDS011;10677;50.942;4.028;2023-07-20T09:22:36;48.05;;;10.45;;
21036;SDS011;10677;50.942;4.028;2023-07-20T09:25:06;15.75;;;2.60;;
21036;SDS011;10677;50.942;4.028;2023-07-20T09:27:36;9.15;;;2.30;;
21036;SDS011;10677;50.942;4.028;2023-07-20T09:30:13;4.55;;;1.70;;
21036;SDS011;10677;50.942;4.028;2023-07-20T09:35:29;3.10;;;1.00;;
21036;SDS011;10677;50.942;4.028;2023-07-20T09:37:55;3.47;;;1.05;;
21036;SDS011;10677;50.942;4.028;2023-07-20T09:40:24;2.33;;;1.02;;
21036;SDS011;10677;50.942;4.028;2023-07-20T09:42:51;4.72;;;1.35;;
21036;SDS011;10677;50.942;4.028;2023-07-20T09:45:27;2.15;;;1.15;;
21036;SDS011;10677;50.942;4.028;2023-07-20T09:48:08;2.50;;;1.13;;
21036;SDS011;10677;50.942;4.028;2023-07-20T09:50:39;3.33;;;1.20;;
21036;SDS011;10677;50.942;4.028;2023-07-20T09:53:11;3.10;;;1.17;;
21036;SDS011;10677;50.942;4.028;2023-07-20T09:55:40;3.75;;;1.48;;
21036;SDS011;10677;50.942;4.028;2023-07-20T09:58:08;4.95;;;1.30;;
21036;SDS011;10677;50.942;4.028;2023-07-20T10:00:35;2.08;;;1.40;;
21036;SDS011;10677;50.942;4.028;2023-07-20T10:03:03;2.15;;;1.00;;
21036;SDS011;10677;50.942;4.028;2023-07-20T10:05:33;4.18;;;1.15;;
21036;SDS011;10677;50.942;4.028;2023-07-20T10:08:01;2.35;;;1.33;;
21036;SDS011;10677;50.942;4.028;2023-07-20T10:10:29;2.78;;;1.10;;
21036;SDS011;10677;50.942;4.028;2023-07-20T10:12:59;3.17;;;1.20;;
21036;SDS011;10677;50.942;4.028;2023-07-20T10:18:29;3.22;;;1.40;;
21036;SDS011;10677;50.942;4.028;2023-07-20T10:20:56;2.33;;;1.13;;
21036;SDS011;10677;50.942;4.028;2023-07-20T10:23:24;3.53;;;1.40;;
21036;SDS011;10677;50.942;4.028;2023-07-20T10:25:51;2.10;;;1.13;;
21036;SDS011;10677;50.942;4.028;2023-07-20T10:28:18;3.35;;;1.48;;
21036;SDS011;10677;50.942;4.028;2023-07-20T10:30:44;4.13;;;1.30;;
21036;SDS011;10677;50.942;4.028;2023-07-20T10:33:11;2.10;;;1.20;;
21036;SDS011;10677;50.942;4.028;2023-07-20T10:41:18;2.40;;;1.10;;
21036;SDS011;10677;50.942;4.028;2023-07-20T10:43:45;2.30;;;1.20;;
21036;SDS011;10677;50.942;4.028;2023-07-20T10:46:12;2.80;;;1.17;;
21036;SDS011;10677;50.942;4.028;2023-07-20T10:51:29;2.67;;;1.40;;
21036;SDS011;10677;50.942;4.028;2023-07-20T10:53:59;2.13;;;1.13;;
21036;SDS011;10677;50.942;4.028;2023-07-20T10:56:27;1.30;;;0.90;;
21036;SDS011;10677;50.942;4.028;2023-07-20T10:59:00;3.92;;;1.92;;
21036;SDS011;10677;50.942;4.028;2023-07-20T11:01:41;2.05;;;1.20;;
21036;SDS011;10677;50.942;4.028;2023-07-20T11:04:10;2.95;;;1.38;;
21036;SDS011;10677;50.942;4.028;2023-07-20T11:06:35;1.58;;;1.10;;
21036;SDS011;10677;50.942;4.028;2023-07-20T11:11:36;2.40;;;1.20;;
21036;SDS011;10677;50.942;4.028;2023-07-20T11:14:04;2.88;;;1.17;;
21036;SDS011;10677;50.942;4.028;2023-07-20T11:19:00;2.58;;;1.45;;
21036;SDS011;10677;50.942;4.028;2023-07-20T11:21:26;2.25;;;1.00;;
21036;SDS011;10677;50.942;4.028;2023-07-20T11:23:52;7.13;;;1.13;;
21036;SDS011;10677;50.942;4.028;2023-07-20T11:26:18;1.75;;;0.90;;
21036;SDS011;10677;50.942;4.028;2023-07-20T11:28:48;1.95;;;0.95;;
21036;SDS011;10677;50.942;4.028;2023-07-20T11:31:14;2.30;;;1.17;;
21036;SDS011;10677;50.942;4.028;2023-07-20T11:33:43;3.95;;;1.60;;
21036;SDS011;10677;50.942;4.028;2023-07-20T11:36:08;2.70;;;1.20;;
21036;SDS011;10677;50.942;4.028;2023-07-20T11:38:34;5.07;;;1.70;;
21036;SDS011;10677;50.942;4.028;2023-07-20T11:41:00;2.80;;;1.45;;
21036;SDS011;10677;50.942;4.028;2023-07-20T11:43:27;3.15;;;1.30;;
21036;SDS011;10677;50.942;4.028;2023-07-20T11:45:53;3.97;;;2.22;;
21036;SDS011;10677;50.942;4.028;2023-07-20T11:48:20;2.70;;;1.80;;
21036;SDS011;10677;50.942;4.028;2023-07-20T11:50:45;3.70;;;1.70;;
21036;SDS011;10677;50.942;4.028;2023-07-20T11:53:11;4.07;;;1.60;;
21036;SDS011;10677;50.942;4.028;2023-07-20T11:55:42;4.60;;;1.83;;
21036;SDS011;10677;50.942;4.028;2023-07-20T11:58:08;16.70;;;3.22;;
21036;SDS011;10677;50.942;4.028;2023-07-20T12:00:35;8.25;;;2.10;;
21036;SDS011;10677;50.942;4.028;2023-07-20T12:03:04;5.88;;;1.67;;
21036;SDS011;10677;50.942;4.028;2023-07-20T12:05:35;5.82;;;1.95;;
21036;SDS011;10677;50.942;4.028;2023-07-20T12:08:02;3.78;;;1.60;;
21036;SDS011;10677;50.942;4.028;2023-07-20T12:10:28;3.25;;;1.58;;
21036;SDS011;10677;50.942;4.028;2023-07-20T12:12:54;4.10;;;1.40;;
21036;SDS011;10677;50.942;4.028;2023-07-20T12:15:28;4.45;;;1.70;;
21036;SDS011;10677;50.942;4.028;2023-07-20T12:18:01;8.60;;;2.10;;
21036;SDS011;10677;50.942;4.028;2023-07-20T12:23:03;3.70;;;1.65;;
21036;SDS011;10677;50.942;4.028;2023-07-20T12:28:07;8.77;;;1.90;;
21036;SDS011;10677;50.942;4.028;2023-07-20T12:30:34;2.45;;;1.40;;
21036;SDS011;10677;50.942;4.028;2023-07-20T12:32:59;7.03;;;1.80;;
21036;SDS011;10677;50.942;4.028;2023-07-20T12:35:25;3.28;;;1.40;;
21036;SDS011;10677;50.942;4.028;2023-07-20T12:37:51;2.97;;;1.45;;
21036;SDS011;10677;50.942;4.028;2023-07-20T12:40:18;3.00;;;1.50;;
21036;SDS011;10677;50.942;4.028;2023-07-20T12:42:44;3.78;;;1.40;;
21036;SDS011;10677;50.942;4.028;2023-07-20T12:45:10;3.83;;;1.48;;
21036;SDS011;10677;50.942;4.028;2023-07-20T12:47:36;4.78;;;1.70;;
21036;SDS011;10677;50.942;4.028;2023-07-20T12:50:02;5.57;;;2.58;;
21036;SDS011;10677;50.942;4.028;2023-07-20T12:52:29;9.23;;;2.90;;
21036;SDS011;10677;50.942;4.028;2023-07-20T12:54:55;4.43;;;2.67;;
21036;SDS011;10677;50.942;4.028;2023-07-20T12:57:20;7.47;;;3.40;;
21036;SDS011;10677;50.942;4.028;2023-07-20T12:59:46;3.90;;;3.00;;
21036;SDS011;10677;50.942;4.028;2023-07-20T13:02:11;4.90;;;3.22;;
21036;SDS011;10677;50.942;4.028;2023-07-20T13:04:37;4.95;;;3.33;;
21036;SDS011;10677;50.942;4.028;2023-07-20T13:07:03;5.25;;;3.05;;
21036;SDS011;10677;50.942;4.028;2023-07-20T13:09:29;5.80;;;3.15;;
21036;SDS011;10677;50.942;4.028;2023-07-20T13:11:54;3.05;;;2.33;;
21036;SDS011;10677;50.942;4.028;2023-07-20T13:14:22;5.10;;;2.55;;
21036;SDS011;10677;50.942;4.028;2023-07-20T13:16:47;3.65;;;2.03;;
21036;SDS011;10677;50.942;4.028;2023-07-20T13:19:13;3.72;;;2.35;;
21036;SDS011;10677;50.942;4.028;2023-07-20T13:21:39;7.05;;;2.33;;
21036;SDS011;10677;50.942;4.028;2023-07-20T13:24:05;2.97;;;1.90;;
21036;SDS011;10677;50.942;4.028;2023-07-20T13:26:31;2.65;;;1.60;;
21036;SDS011;10677;50.942;4.028;2023-07-20T13:28:58;2.67;;;1.63;;
21036;SDS011;10677;50.942;4.028;2023-07-20T13:31:24;4.78;;;1.30;;
21036;SDS011;10677;50.942;4.028;2023-07-20T13:33:49;2.28;;;1.50;;
21036;SDS011;10677;50.942;4.028;2023-07-20T13:36:15;5.57;;;1.58;;
21036;SDS011;10677;50.942;4.028;2023-07-20T13:38:41;2.47;;;0.70;;
21036;SDS011;10677;50.942;4.028;2023-07-20T13:41:07;2.33;;;0.95;;
21036;SDS011;10677;50.942;4.028;2023-07-20T13:43:32;1.77;;;0.80;;
21036;SDS011;10677;50.942;4.028;2023-07-20T13:45:58;2.15;;;0.80;;
21036;SDS011;10677;50.942;4.028;2023-07-20T13:48:24;2.22;;;0.80;;
21036;SDS011;10677;50.942;4.028;2023-07-20T13:50:49;1.73;;;0.80;;
21036;SDS011;10677;50.942;4.028;2023-07-20T13:53:17;1.77;;;0.88;;
21036;SDS011;10677;50.942;4.028;2023-07-20T13:55:43;3.35;;;0.73;;
21036;SDS011;10677;50.942;4.028;2023-07-20T13:58:09;2.05;;;0.80;;
21036;SDS011;10677;50.942;4.028;2023-07-20T14:00:35;3.38;;;0.70;;
21036;SDS011;10677;50.942;4.028;2023-07-20T14:03:01;2.25;;;1.10;;
21036;SDS011;10677;50.942;4.028;2023-07-20T14:05:27;2.00;;;0.90;;
21036;SDS011;10677;50.942;4.028;2023-07-20T14:07:53;1.60;;;0.90;;
21036;SDS011;10677;50.942;4.028;2023-07-20T14:10:19;2.95;;;1.00;;
21036;SDS011;10677;50.942;4.028;2023-07-20T14:12:45;4.10;;;1.25;;
21036;SDS011;10677;50.942;4.028;2023-07-20T14:15:11;3.30;;;0.98;;
21036;SDS011;10677;50.942;4.028;2023-07-20T14:17:36;2.70;;;1.13;;
21036;SDS011;10677;50.942;4.028;2023-07-20T14:20:02;3.17;;;1.00;;
21036;SDS011;10677;50.942;4.028;2023-07-20T14:22:33;3.20;;;1.20;;
21036;SDS011;10677;50.942;4.028;2023-07-20T14:24:59;2.85;;;1.10;;
21036;SDS011;10677;50.942;4.028;2023-07-20T14:27:24;2.72;;;1.00;;
21036;SDS011;10677;50.942;4.028;2023-07-20T14:29:50;2.70;;;0.90;;
21036;SDS011;10677;50.942;4.028;2023-07-20T14:32:15;3.10;;;0.88;;
21036;SDS011;10677;50.942;4.028;2023-07-20T14:34:41;4.18;;;1.02;;
21036;SDS011;10677;50.942;4.028;2023-07-20T14:37:07;1.88;;;0.95;;
21036;SDS011;10677;50.942;4.028;2023-07-20T14:39:33;1.92;;;1.00;;
21036;SDS011;10677;50.942;4.028;2023-07-20T14:41:58;2.45;;;0.90;;
21036;SDS011;10677;50.942;4.028;2023-07-20T14:44:24;1.77;;;0.95;;
21036;SDS011;10677;50.942;4.028;2023-07-20T14:46:50;2.53;;;0.90;;
21036;SDS011;10677;50.942;4.028;2023-07-20T14:49:16;2.65;;;1.00;;
21036;SDS011;10677;50.942;4.028;2023-07-20T14:51:43;3.20;;;1.10;;
21036;SDS011;10677;50.942;4.028;2023-07-20T14:54:11;3.13;;;1.40;;
21036;SDS011;10677;50.942;4.028;2023-07-20T14:56:38;3.70;;;1.33;;
21036;SDS011;10677;50.942;4.028;2023-07-20T14:59:04;5.55;;;1.90;;
21036;SDS011;10677;50.942;4.028;2023-07-20T15:01:31;7.13;;;2.22;;
21036;SDS011;10677;50.942;4.028;2023-07-20T15:03:57;4.57;;;2.53;;
21036;SDS011;10677;50.942;4.028;2023-07-20T15:06:26;5.57;;;2.55;;
21036;SDS011;10677;50.942;4.028;2023-07-20T15:08:51;4.93;;;2.42;;